Time;durP1;ratioP1;P1;durP2;ratioP2;P2;SDS_P1;SDS_P2;PMS_P1;PMS_P2;Temp;Humidity;BMP_temperature;BMP_pressure;BME280_temperature;BME280_humidity;BME280_pressure;Samples;Min_cycle;Max_cycle;Signal;HPM_P1;HPM_P2
2022/09/05 00:02:36;;;;;;;3.55;3.10;;;;;;;20.00;63.81;97520.91;10296869;28;20054;-79
2022/09/05 00:08:26;;;;;;;3.92;3.13;;;;;;;20.00;63.71;97514.72;10321001;28;20041;-79
2022/09/05 00:14:24;;;;;;;4.47;3.22;;;;;;;20.01;63.78;97510.88;10331215;28;20034;-79
2022/09/05 00:20:30;;;;;;;4.93;3.42;;;;;;;20.00;63.82;97501.19;10344198;28;20117;-79
2022/09/05 00:26:33;;;;;;;3.28;2.95;;;;;;;20.00;63.74;97503.91;10321514;28;20050;-79
2022/09/05 00:32:40;;;;;;;3.53;3.10;;;;;;;20.00;63.64;97504.69;10330495;28;20038;-79
2022/09/05 00:38:24;;;;;;;3.70;3.00;;;;;;;20.00;63.62;97498.50;10326489;28;20051;-79
2022/09/05 00:44:02;;;;;;;4.93;3.30;;;;;;;19.99;63.65;97494.19;10340832;28;20050;-79
2022/09/05 00:49:50;;;;;;;3.28;2.97;;;;;;;19.99;63.65;97505.78;10332930;28;20410;-79
2022/09/05 00:55:56;;;;;;;3.80;3.30;;;;;;;20.00;63.68;97509.31;10355312;28;20489;-79
2022/09/05 01:01:52;;;;;;;3.10;2.80;;;;;;;20.00;63.58;97510.09;10346409;28;20046;-79
2022/09/05 01:07:36;;;;;;;3.13;2.88;;;;;;;20.00;63.67;97507.41;10326316;28;20046;-79
2022/09/05 01:13:14;;;;;;;3.55;3.22;;;;;;;19.99;63.60;97505.00;10312624;28;20046;-79
2022/09/05 01:19:26;;;;;;;3.00;2.70;;;;;;;19.99;63.59;97510.41;10348146;28;20493;-79
2022/09/05 01:25:34;;;;;;;4.05;3.15;;;;;;;20.01;63.49;97510.88;10351018;28;20053;-79
2022/09/05 01:31:43;;;;;;;3.15;2.85;;;;;;;19.99;63.52;97513.09;10353723;28;20041;-79
2022/09/05 01:37:26;;;;;;;3.40;3.10;;;;;;;19.99;63.60;97519.31;10328540;28;20426;-79
2022/09/05 01:43:49;;;;;;;3.75;3.05;;;;;;;19.99;63.48;97513.09;10336355;28;20042;-79
2022/09/05 01:49:55;;;;;;;3.47;2.80;;;;;;;19.99;63.33;97513.91;10340127;28;20474;-79
2022/09/05 01:56:15;;;;;;;3.15;2.85;;;;;;;19.99;63.60;97516.59;10320248;28;20034;-79
2022/09/05 02:02:31;;;;;;;2.97;2.70;;;;;;;19.99;63.53;97518.53;10332620;28;20050;-79
2022/09/05 02:08:25;;;;;;;3.08;2.80;;;;;;;19.99;63.42;97518.53;10342333;28;20561;-79
2022/09/05 02:14:25;;;;;;;3.58;2.83;;;;;;;20.00;63.31;97522.84;10338385;28;20050;-79
2022/09/05 02:20:27;;;;;;;3.35;2.60;;;;;;;19.98;63.36;97517.72;10317901;28;20050;-79
2022/09/05 02:26:21;;;;;;;2.63;2.42;;;;;;;19.99;63.47;97523.94;10314884;28;20417;-79
2022/09/05 02:32:10;;;;;;;3.10;2.60;;;;;;;19.97;63.27;97521.53;10341240;28;20050;-79
2022/09/05 02:37:53;;;;;;;2.95;2.65;;;;;;;19.99;63.08;97523.94;10339012;28;20059;-79
2022/09/05 02:43:53;;;;;;;3.38;2.70;;;;;;;19.99;63.41;97529.34;10310651;28;20050;-79
2022/09/05 02:49:54;;;;;;;2.65;2.45;;;;;;;19.98;63.41;97522.34;10343406;28;20050;-79
2022/09/05 02:55:55;;;;;;;2.97;2.60;;;;;;;19.98;63.30;97516.94;10347949;28;20038;-79
2022/09/05 03:01:36;;;;;;;4.00;2.78;;;;;;;19.97;63.34;97523.44;10321783;28;20121;-79
2022/09/05 03:07:38;;;;;;;2.83;2.53;;;;;;;19.97;63.40;97521.53;10330081;28;20046;-79
2022/09/05 03:13:35;;;;;;;2.67;2.42;;;;;;;19.98;63.39;97522.34;10342586;28;20046;-79
2022/09/05 03:19:32;;;;;;;2.45;2.25;;;;;;;19.98;63.29;97522.34;10322595;28;20035;-79
2022/09/05 03:25:13;;;;;;;2.72;2.53;;;;;;;19.97;63.27;97526.13;10321348;28;20046;-79
2022/09/05 03:31:12;;;;;;;2.70;2.50;;;;;;;19.98;63.22;97527.75;10326049;28;20041;-79
2022/09/05 03:37:08;;;;;;;2.50;2.30;;;;;;;19.98;63.22;97527.75;10340587;28;20070;-79
2022/09/05 03:43:14;;;;;;;3.08;2.30;;;;;;;19.96;63.23;97530.75;10345853;28;20042;-79
2022/09/05 03:49:25;;;;;;;2.90;2.60;;;;;;;19.97;63.34;97531.56;10345171;28;20038;-79
2022/09/05 03:55:38;;;;;;;2.40;2.20;;;;;;;19.95;63.10;97527.25;10327373;28;20489;-79
2022/09/05 04:01:22;;;;;;;2.40;2.20;;;;;;;19.97;63.34;97528.84;10323057;28;20129;-78
2022/09/05 04:07:04;;;;;;;3.13;2.25;;;;;;;19.97;63.11;97536.97;10331976;28;20517;-79
2022/09/05 04:12:42;;;;;;;3.63;3.03;;;;;;;19.96;63.15;97541.56;10344384;28;20405;-79
2022/09/05 04:18:28;;;;;;;3.20;2.55;;;;;;;19.98;63.48;97538.56;10326828;28;20042;-79
2022/09/05 04:24:10;;;;;;;2.67;2.47;;;;;;;19.97;63.54;97548.56;10335847;28;20513;-79
2022/09/05 04:29:58;;;;;;;2.53;2.33;;;;;;;19.97;63.41;97545.06;10320876;28;20042;-78
2022/09/05 04:35:49;;;;;;;3.27;2.97;;;;;;;19.94;63.18;97547.28;10329847;28;20046;-79
2022/09/05 04:41:27;;;;;;;3.45;2.70;;;;;;;19.94;62.97;97555.41;10330331;28;20046;-79
2022/09/05 04:47:19;;;;;;;3.63;2.70;;;;;;;19.94;63.00;97555.41;10320461;28;20046;-84
2022/09/05 04:53:18;;;;;;;5.13;3.08;;;;;;;19.95;63.00;97567.00;10362320;28;20046;-79
2022/09/05 04:59:07;;;;;;;3.17;2.88;;;;;;;19.94;62.98;97574.34;10352322;28;20121;-79
2022/09/05 05:04:45;;;;;;;5.30;3.35;;;;;;;19.96;62.78;97579.44;10340797;28;20038;-79
2022/09/05 05:10:42;;;;;;;11.70;5.15;;;;;;;19.93;63.14;97572.75;10339567;28;20039;-79
2022/09/05 05:16:30;;;;;;;9.43;5.30;;;;;;;19.93;62.81;97585.44;10326973;28;20072;-79
2022/09/05 05:22:13;;;;;;;11.07;5.27;;;;;;;19.92;62.86;97586.56;10333413;28;20405;-79
2022/09/05 05:28:08;;;;;;;7.13;4.68;;;;;;;19.91;62.68;97593.88;10349946;28;20054;-79
2022/09/05 05:33:49;;;;;;;9.13;4.90;;;;;;;19.91;62.57;97593.06;10320148;28;20038;-79
2022/09/05 05:39:28;;;;;;;6.07;4.18;;;;;;;19.90;62.48;97592.28;10341695;28;20058;-79
2022/09/05 05:45:16;;;;;;;;;;;;;;;19.89;62.29;97601.47;10317177;28;20413;-79
2022/09/05 05:51:23;;;;;;;5.30;4.22;;;;;;;19.89;62.20;97596.06;10346602;28;20004;-79
2022/09/05 05:57:38;;;;;;;4.32;3.65;;;;;;;19.88;62.05;97599.91;10347328;28;20050;-79
2022/09/05 06:03:34;;;;;;;6.53;4.05;;;;;;;19.89;62.17;97608.81;10326782;28;20133;-80
2022/09/05 06:09:54;;;;;;;4.28;3.88;;;;;;;19.87;61.90;97609.09;10328239;28;20045;-80
2022/09/05 06:15:38;;;;;;;4.40;3.53;;;;;;;19.88;61.92;97616.13;10336437;28;20042;-78
2022/09/05 06:21:53;;;;;;;4.45;3.20;;;;;;;19.88;61.97;97618.03;10334702;28;20050;-78
2022/09/05 06:27:59;;;;;;;3.30;3.03;;;;;;;19.87;61.94;97613.72;10335588;28;20065;-79
2022/09/05 06:33:58;;;;;;;3.22;2.92;;;;;;;19.87;62.01;97619.91;10326636;28;20050;-78
2022/09/05 06:40:26;;;;;;;3.00;2.72;;;;;;;19.86;61.99;97623.75;10311594;28;20085;-78
2022/09/05 06:46:22;;;;;;;4.63;2.97;;;;;;;19.87;61.97;97619.91;10269705;28;20050;-78
2022/09/05 06:52:03;;;;;;;3.30;2.80;;;;;;;19.86;61.93;97623.75;10328037;28;20284;-78
2022/09/05 06:57:47;;;;;;;3.08;2.78;;;;;;;19.87;62.03;97629.94;10337760;28;20054;-78
2022/09/05 07:03:59;;;;;;;3.20;2.90;;;;;;;19.86;61.97;97629.16;10335961;28;20136;-78
2022/09/05 07:09:56;;;;;;;3.00;2.80;;;;;;;19.86;61.82;97629.16;10332876;28;20425;-79
2022/09/05 07:15:48;;;;;;;3.30;3.00;;;;;;;19.87;61.90;97638.06;10332380;28;20046;-79
2022/09/05 07:21:33;;;;;;;3.55;3.22;;;;;;;19.86;61.89;97636.47;10326914;28;20046;-78
2022/09/05 07:27:31;;;;;;;3.30;2.88;;;;;;;19.86;62.03;97639.97;10329671;28;20081;-79
2022/09/05 07:33:09;;;;;;;5.03;3.40;;;;;;;19.86;61.98;97639.19;10348784;28;20081;-79
2022/09/05 07:38:49;;;;;;;5.32;3.10;;;;;;;19.86;62.03;97642.69;10328732;28;20045;-79
2022/09/05 07:44:35;;;;;;;5.97;3.58;;;;;;;19.86;62.17;97639.97;10323575;28;20041;-79
2022/09/05 07:50:14;;;;;;;5.88;3.83;;;;;;;19.85;62.17;97638.34;10322528;28;20475;-79
2022/09/05 07:55:57;;;;;;;5.63;4.18;;;;;;;19.85;62.31;97643.75;10331630;28;20070;-78
2022/09/05 08:01:37;;;;;;;5.80;4.30;;;;;;;19.86;62.32;97645.38;10357079;28;20065;-79
2022/09/05 08:07:30;;;;;;;5.05;4.15;;;;;;;19.86;62.26;97648.09;10301890;28;20046;-78
2022/09/05 08:13:12;;;;;;;5.65;4.22;;;;;;;19.85;62.26;97649.16;10326096;28;20088;-78
2022/09/05 08:18:57;;;;;;;4.90;3.85;;;;;;;19.86;62.42;97648.09;10317279;28;20046;-78
2022/09/05 08:24:37;;;;;;;5.43;4.68;;;;;;;19.85;62.44;97651.88;10318558;28;20051;-78
2022/09/05 08:30:15;;;;;;;4.75;4.07;;;;;;;19.85;62.52;97646.47;10324491;28;20038;-79
2022/09/05 08:36:00;;;;;;;6.05;4.47;;;;;;;19.87;62.48;97657.00;10340399;28;20073;-78
2022/09/05 08:42:03;;;;;;;5.88;4.35;;;;;;;19.86;62.46;97658.91;10318810;28;20077;-78
2022/09/05 08:48:09;;;;;;;7.88;4.35;;;;;;;19.86;62.45;97650.00;10327172;28;20046;-79
2022/09/05 08:54:03;;;;;;;5.22;4.10;;;;;;;19.86;62.47;97639.19;10329307;28;20042;-79
2022/09/05 08:59:44;;;;;;;5.93;4.20;;;;;;;19.86;62.60;97650.00;10302726;28;20050;-80
2022/09/05 09:05:46;;;;;;;4.60;3.90;;;;;;;19.87;62.65;97641.56;10331471;28;20046;-80
2022/09/05 09:11:47;;;;;;;4.22;3.85;;;;;;;19.87;62.60;97649.66;10334132;28;20437;-80
2022/09/05 09:17:44;;;;;;;4.35;3.95;;;;;;;19.88;62.59;97640.47;10332810;28;20042;-80
2022/09/05 09:23:36;;;;;;;4.13;3.72;;;;;;;19.87;62.72;97641.56;10319500;28;20046;-80
2022/09/05 09:29:16;;;;;;;4.93;3.83;;;;;;;19.88;62.80;97635.06;10345128;28;20037;-80
2022/09/05 09:35:11;;;;;;;4.63;3.72;;;;;;;19.90;62.72;97645.56;10325104;28;20043;-80
2022/09/05 09:41:04;;;;;;;4.50;3.85;;;;;;;19.89;62.72;97641.25;10314228;28;20134;-80
2022/09/05 09:46:45;;;;;;;4.13;3.72;;;;;;;19.89;62.97;97638.56;10326212;28;20050;-80
2022/09/05 09:53:05;;;;;;;4.35;3.95;;;;;;;19.89;62.89;97639.34;10324842;28;20046;-80
2022/09/05 09:59:06;;;;;;;4.30;3.90;;;;;;;19.90;62.97;97637.47;10338599;28;20477;-80
2022/09/05 10:04:50;;;;;;;3.83;3.53;;;;;;;19.89;62.90;97627.72;10329200;28;20486;-80
2022/09/05 10:10:36;;;;;;;4.82;3.83;;;;;;;19.90;62.91;97630.13;10348136;28;20038;-80
2022/09/05 10:16:58;;;;;;;4.25;3.78;;;;;;;19.91;62.91;97636.34;10352738;28;20049;-80
2022/09/05 10:22:58;;;;;;;4.68;3.72;;;;;;;19.90;63.02;97635.53;10322611;28;20046;-80
2022/09/05 10:29:05;;;;;;;4.43;3.67;;;;;;;19.90;62.98;97632.06;10322417;28;20113;-80
2022/09/05 10:34:59;;;;;;;4.20;3.80;;;;;;;19.91;62.96;97620.91;10321477;28;20034;-80
2022/09/05 10:40:39;;;;;;;3.65;3.35;;;;;;;19.91;62.95;97626.31;10322566;28;20058;-80
2022/09/05 10:46:30;;;;;;;3.80;3.50;;;;;;;19.92;63.00;97621.72;10329381;28;20038;-80
2022/09/05 10:52:12;;;;;;;3.92;3.45;;;;;;;19.92;63.07;97616.31;10321727;28;20043;-80
2022/09/05 10:57:59;;;;;;;3.47;3.17;;;;;;;19.92;63.02;97619.81;10323195;28;20138;-80
2022/09/05 11:03:50;;;;;;;3.80;3.50;;;;;;;19.93;63.06;97609.78;10333267;28;20046;-80
2022/09/05 11:09:47;;;;;;;3.67;3.38;;;;;;;19.93;63.04;97618.72;10321154;28;20046;-80
2022/09/05 11:15:41;;;;;;;3.85;3.45;;;;;;;19.94;63.20;97604.06;10332856;28;20042;-80
2022/09/05 11:21:35;;;;;;;3.80;3.50;;;;;;;19.93;63.12;97602.50;10330482;28;20050;-80
2022/09/05 11:27:28;;;;;;;3.63;3.25;;;;;;;19.94;63.16;97595.97;10334645;28;20046;-81
2022/09/05 11:33:06;;;;;;;3.50;3.25;;;;;;;19.94;63.12;97598.66;10339882;28;20038;-80
2022/09/05 11:39:07;;;;;;;3.53;3.22;;;;;;;19.94;63.17;97597.88;10309585;28;20510;-80
2022/09/05 11:44:58;;;;;;;3.58;3.28;;;;;;;19.94;63.16;97598.66;10325495;28;20512;-80
2022/09/05 11:50:49;;;;;;;3.53;3.22;;;;;;;19.95;63.16;97594.06;10314410;28;20042;-80
2022/09/05 11:56:55;;;;;;;3.70;3.35;;;;;;;19.95;63.03;97584.06;10324722;28;20037;-80
2022/09/05 12:02:59;;;;;;;3.55;3.25;;;;;;;19.95;63.18;97584.06;10334827;28;20409;-80
2022/09/05 12:08:49;;;;;;;3.42;3.13;;;;;;;19.95;63.15;97577.81;10321771;28;20046;-80
2022/09/05 12:14:27;;;;;;;3.65;3.35;;;;;;;19.97;63.27;97577.53;10321398;28;20468;-79
2022/09/05 12:20:13;;;;;;;3.60;3.30;;;;;;;19.98;63.33;97579.94;10331764;28;20050;-79
2022/09/05 12:26:02;;;;;;;3.60;3.30;;;;;;;19.97;63.21;97572.91;10317089;28;20042;-79
2022/09/05 12:31:57;;;;;;;3.58;3.28;;;;;;;19.97;63.15;97569.41;10325149;28;20512;-79
2022/09/05 12:38:07;;;;;;;3.38;3.08;;;;;;;19.97;63.23;97561.31;10320692;28;20096;-79
2022/09/05 12:43:54;;;;;;;3.80;3.50;;;;;;;19.97;63.08;97547.78;10325215;28;20078;-79
2022/09/05 12:50:07;;;;;;;3.40;3.10;;;;;;;19.97;63.13;97548.56;10335200;28;20042;-79
2022/09/05 12:55:54;;;;;;;3.45;3.15;;;;;;;19.97;63.08;97542.38;10323589;28;20409;-79
2022/09/05 13:01:41;;;;;;;3.38;3.08;;;;;;;19.95;63.06;97529.97;10331569;28;20140;-79
2022/09/05 13:07:22;;;;;;;3.13;2.83;;;;;;;19.97;62.96;97526.13;10338488;28;20149;-79
2022/09/05 13:13:05;;;;;;;3.15;2.92;;;;;;;19.97;63.10;97524.22;10336950;28;20038;-79
2022/09/05 13:18:45;;;;;;;3.22;2.92;;;;;;;19.98;63.05;97514.22;10337666;28;20077;-79
2022/09/05 13:24:29;;;;;;;3.17;2.95;;;;;;;19.97;63.05;97516.13;10333778;28;20125;-80
2022/09/05 13:30:12;;;;;;;3.30;2.92;;;;;;;19.98;63.13;97504.22;10356646;28;20474;-78
2022/09/05 13:36:02;;;;;;;3.03;2.83;;;;;;;19.97;62.97;97509.91;10325770;28;20046;-79
2022/09/05 13:41:47;;;;;;;3.38;3.08;;;;;;;19.98;63.15;97500.72;10330349;28;20089;-78
2022/09/05 13:47:44;;;;;;;3.10;2.90;;;;;;;19.98;63.08;97495.31;10336178;28;20069;-78
2022/09/05 13:53:33;;;;;;;3.03;2.83;;;;;;;19.97;63.09;97483.66;10322481;28;20042;-79
2022/09/05 13:59:13;;;;;;;2.83;2.63;;;;;;;19.99;62.98;97483.34;10342900;28;20038;-79
2022/09/05 14:05:12;;;;;;;3.05;2.85;;;;;;;19.98;63.07;97481.78;10328419;28;20046;-79
2022/09/05 14:11:24;;;;;;;3.13;2.93;;;;;;;20.00;63.08;97476.84;10325164;28;20034;-78
2022/09/05 14:17:10;;;;;;;3.05;2.80;;;;;;;19.99;63.07;97465.22;10338663;28;20433;-79
2022/09/05 14:23:04;;;;;;;2.63;2.42;;;;;;;19.99;63.11;97464.44;10343854;28;20082;-79
2022/09/05 14:28:57;;;;;;;3.00;2.80;;;;;;;19.99;62.94;97459.03;10334268;28;20046;-79
2022/09/05 14:34:59;;;;;;;3.13;2.92;;;;;;;19.98;63.08;97447.41;10346787;28;20046;-79
2022/09/05 14:40:38;;;;;;;2.88;2.67;;;;;;;19.99;63.00;97448.19;10334022;28;20568;-79
2022/09/05 14:46:39;;;;;;;3.25;2.95;;;;;;;19.99;62.97;97446.28;10370067;28;20038;-79
2022/09/05 14:52:12;;;;;;;2.88;2.67;;;;;;;19.99;62.91;97443.59;10307657;28;20109;-78
2022/09/05 14:57:38;;;;;;;2.67;2.47;;;;;;;20.01;63.09;97445.97;10330444;28;20049;-80
2022/09/05 15:02:59;;;;;;;3.13;2.83;;;;;;;20.02;63.13;97445.69;10335580;28;20046;-80
2022/09/05 15:08:22;;;;;;;2.60;2.40;;;;;;;20.05;62.99;97444.25;10335108;28;20046;-79
2022/09/05 15:13:43;;;;;;;3.00;2.80;;;;;;;20.06;63.35;97437.75;10361941;28;20061;-80
2022/09/05 15:19:03;;;;;;;2.95;2.67;;;;;;;20.08;63.51;97424.72;10366236;28;20038;-80
2022/09/05 15:24:29;;;;;;;3.00;2.70;;;;;;;20.09;63.54;97426.28;10327420;28;20034;-80
2022/09/05 15:29:53;;;;;;;4.55;2.95;;;;;;;20.09;63.73;97421.69;10344701;28;20049;-81
2022/09/05 15:35:34;;;;;;;3.17;2.80;;;;;;;20.12;63.83;97421.06;10351601;28;20445;-80
2022/09/05 15:41:16;;;;;;;3.25;2.95;;;;;;;20.14;63.94;97421.53;10318922;28;20418;-79
2022/09/05 15:46:48;;;;;;;4.28;3.60;;;;;;;20.14;63.92;97426.94;10353714;28;20046;-78
2022/09/05 15:52:16;;;;;;;4.50;4.10;;;;;;;20.18;63.69;97429.81;10354528;28;20054;-79
2022/09/05 15:57:49;;;;;;;4.78;4.30;;;;;;;20.16;63.83;97421.22;10371651;28;20038;-79
2022/09/05 16:03:13;;;;;;;6.85;5.18;;;;;;;20.19;63.92;97426.03;10350386;28;20049;-79
2022/09/05 16:08:57;;;;;;;6.45;5.72;;;;;;;20.21;64.09;97414.88;10334829;28;20046;-79
2022/09/05 16:14:32;;;;;;;9.73;5.50;;;;;;;20.23;64.15;97415.34;10323647;28;20061;-79
2022/09/05 16:19:57;;;;;;;8.98;5.57;;;;;;;20.22;64.36;97403.75;10330385;28;20120;-78
2022/09/05 16:25:27;;;;;;;5.88;5.28;;;;;;;20.23;64.51;97404.53;10325558;28;20382;-79
2022/09/05 16:30:47;;;;;;;7.18;5.68;;;;;;;20.22;64.36;97403.75;10342676;28;20054;-79
2022/09/05 16:36:13;;;;;;;6.45;4.80;;;;;;;20.24;64.50;97398.03;10346577;28;20042;-80
2022/09/05 16:41:51;;;;;;;;;;;;;;;20.24;64.79;97395.31;10311976;28;20046;-81
2022/09/05 16:47:21;;;;;;;7.03;5.35;;;;;;;20.23;64.60;97394.53;10320477;28;19930;-81
2022/09/05 16:52:44;;;;;;;8.40;5.80;;;;;;;20.24;64.63;97396.09;10310051;28;20486;-81
2022/09/05 16:58:09;;;;;;;7.07;5.47;;;;;;;20.24;64.31;97398.03;10330912;28;20050;-80
2022/09/05 17:04:03;;;;;;;7.40;5.47;;;;;;;20.24;64.65;97393.41;10297857;28;20094;-80
2022/09/05 17:09:26;;;;;;;6.32;5.18;;;;;;;20.22;64.55;97392.91;10301600;28;20541;-80
2022/09/05 17:15:04;;;;;;;5.72;4.88;;;;;;;20.23;64.61;97399.13;10282864;28;20540;-80
2022/09/05 17:20:26;;;;;;;5.18;4.68;;;;;;;20.22;64.62;97392.13;10278377;28;20043;-80
2022/09/05 17:25:52;;;;;;;5.63;4.78;;;;;;;20.21;64.52;97390.53;10305496;28;20042;-80
2022/09/05 17:31:39;;;;;;;7.93;5.47;;;;;;;20.20;64.58;97392.44;10297313;28;20061;-80
2022/09/05 17:37:09;;;;;;;5.47;4.97;;;;;;;20.20;64.52;97395.13;10329868;28;20057;-79
2022/09/05 17:42:53;;;;;;;7.25;4.40;;;;;;;20.15;64.70;97393.38;10360293;28;20425;-80
2022/09/05 17:48:15;;;;;;;5.03;4.30;;;;;;;20.12;64.42;97390.50;10341389;28;20062;-80
2022/09/05 17:54:17;;;;;;;5.22;4.18;;;;;;;20.12;64.36;97383.19;10343378;28;20048;-81
2022/09/05 17:59:37;;;;;;;6.35;5.75;;;;;;;20.10;64.35;97390.81;10348270;28;20042;-80
2022/09/05 18:04:57;;;;;;;5.93;4.72;;;;;;;20.06;64.38;97389.84;10314503;28;20403;-81
2022/09/05 18:10:17;;;;;;;15.75;11.82;;;;;;;20.03;64.44;97401.31;10358786;28;20401;-82
2022/09/05 18:15:37;;;;;;;11.82;10.50;;;;;;;20.03;64.28;97406.72;10335503;28;20517;-81
2022/09/05 18:21:04;;;;;;;14.93;9.50;;;;;;;20.06;64.03;97414.19;10355550;28;20049;-80
2022/09/05 18:26:25;;;;;;;11.65;9.82;;;;;;;20.08;64.09;97409.25;10359403;28;20494;-81
2022/09/05 18:31:45;;;;;;;10.45;8.80;;;;;;;20.10;64.19;97411.66;10344759;28;20508;-82
2022/09/05 18:37:37;;;;;;;13.00;8.98;;;;;;;20.11;64.24;97418.66;10347384;28;20528;-81
2022/09/05 18:43:01;;;;;;;9.93;8.90;;;;;;;20.12;64.17;97412.16;10320079;28;20054;-82
2022/09/05 18:48:26;;;;;;;9.65;8.65;;;;;;;20.12;64.11;97420.25;10333970;28;20043;-82
2022/09/05 18:53:47;;;;;;;11.32;8.60;;;;;;;20.12;64.20;97421.06;10335913;28;20057;-81
2022/09/05 18:59:30;;;;;;;11.20;8.80;;;;;;;20.12;64.18;97423.75;10324939;28;20042;-82
2022/09/05 19:04:53;;;;;;;9.45;8.45;;;;;;;20.14;64.36;97423.44;10337103;28;20046;-81
2022/09/05 19:10:27;;;;;;;9.98;8.38;;;;;;;20.14;64.28;97423.44;10367386;28;20038;-81
2022/09/05 19:15:52;;;;;;;9.32;8.32;;;;;;;20.14;64.23;97426.16;10354767;28;20100;-81
2022/09/05 19:21:18;;;;;;;9.77;8.40;;;;;;;20.14;64.23;97424.25;10338588;28;20052;-81
2022/09/05 19:26:37;;;;;;;11.75;8.10;;;;;;;20.15;64.26;97427.75;10317284;28;20042;-81
2022/09/05 19:32:02;;;;;;;9.88;8.30;;;;;;;20.16;64.13;97418.53;10346194;28;20050;-81
2022/09/05 19:37:21;;;;;;;8.75;7.85;;;;;;;20.15;64.34;97420.44;10310557;28;20051;-81
2022/09/05 19:42:43;;;;;;;10.02;8.40;;;;;;;20.15;64.40;97411.53;10346200;28;20034;-81
2022/09/05 19:48:17;;;;;;;7.85;7.05;;;;;;;20.16;64.35;97410.41;10319155;28;20117;-81
2022/09/05 19:53:52;;;;;;;8.90;7.60;;;;;;;20.15;64.29;97409.63;10351565;28;20473;-79
2022/09/05 19:59:16;;;;;;;9.30;7.65;;;;;;;20.15;64.29;97404.22;10315923;28;20047;-80
2022/09/05 20:04:43;;;;;;;8.10;7.28;;;;;;;20.15;64.28;97411.53;10331350;28;20046;-80
2022/09/05 20:10:03;;;;;;;9.45;7.40;;;;;;;20.15;64.21;97408.81;10336279;28;20046;-80
2022/09/05 20:15:36;;;;;;;9.40;7.43;;;;;;;20.15;64.29;97411.53;10320980;28;20062;-80
2022/09/05 20:21:09;;;;;;;8.20;7.40;;;;;;;20.14;64.13;97404.50;10344754;28;20099;-80
2022/09/05 20:26:32;;;;;;;7.38;6.65;;;;;;;20.15;64.28;97403.41;10372081;28;20129;-80
2022/09/05 20:31:51;;;;;;;10.48;7.63;;;;;;;20.15;64.14;97403.41;10317494;28;20434;-80
2022/09/05 20:37:12;;;;;;;7.85;7.05;;;;;;;20.15;64.32;97406.91;10329834;28;20046;-80
2022/09/05 20:42:34;;;;;;;9.63;7.32;;;;;;;20.16;64.26;97402.28;10342518;28;20046;-80
2022/09/05 20:47:54;;;;;;;8.13;7.03;;;;;;;20.15;64.21;97395.31;10328613;28;20049;-80
2022/09/05 20:53:21;;;;;;;7.28;6.63;;;;;;;20.15;64.17;97387.19;10325519;28;20073;-81
2022/09/05 20:58:46;;;;;;;7.18;6.47;;;;;;;20.15;64.19;97387.97;10331399;28;20042;-80
2022/09/05 21:04:06;;;;;;;7.97;6.90;;;;;;;20.17;64.22;97378.75;10344264;28;20042;-80
2022/09/05 21:09:28;;;;;;;7.70;6.60;;;;;;;20.15;63.97;97392.59;10366403;28;20042;-80
2022/09/05 21:14:47;;;;;;;7.22;6.43;;;;;;;20.16;63.87;97388.78;10337880;28;20046;-81
2022/09/05 21:20:08;;;;;;;6.57;5.78;;;;;;;20.14;63.68;97385.59;10350350;28;20486;-81
2022/09/05 21:25:29;;;;;;;6.45;5.78;;;;;;;20.13;63.47;97381.28;10337192;28;20038;-80
2022/09/05 21:30:48;;;;;;;6.32;5.57;;;;;;;20.13;63.41;97365.03;10350505;28;20045;-80
2022/09/05 21:36:10;;;;;;;8.68;5.70;;;;;;;20.12;63.19;97371.56;10356675;28;20046;-80
2022/09/05 21:41:30;;;;;;;6.03;5.43;;;;;;;20.12;63.23;97366.16;10320200;28;20501;-80
2022/09/05 21:46:49;;;;;;;6.00;5.40;;;;;;;20.14;63.25;97372.06;10355789;28;20034;-80
2022/09/05 21:52:09;;;;;;;5.72;5.18;;;;;;;20.14;63.29;97363.94;10344585;28;20391;-81
2022/09/05 21:57:31;;;;;;;6.38;5.38;;;;;;;20.13;63.38;97378.56;10344022;28;20046;-80
2022/09/05 22:02:52;;;;;;;6.40;5.70;;;;;;;20.13;63.43;97373.16;10316469;28;20042;-81
2022/09/05 22:08:12;;;;;;;6.00;5.40;;;;;;;20.12;63.29;97358.84;10354231;28;20120;-81
2022/09/05 22:13:31;;;;;;;5.88;5.28;;;;;;;20.13;63.34;97365.03;10321748;28;20054;-81
2022/09/05 22:18:50;;;;;;;6.07;5.47;;;;;;;20.14;63.60;97372.84;10346452;28;20039;-80
2022/09/05 22:24:10;;;;;;;5.72;5.22;;;;;;;20.12;63.40;97371.56;10359065;28;20485;-81
2022/09/05 22:29:33;;;;;;;5.65;5.15;;;;;;;20.14;63.59;97369.34;10331244;28;20433;-81
2022/09/05 22:34:53;;;;;;;5.53;4.93;;;;;;;20.14;63.70;97363.94;10329999;28;20048;-81
2022/09/05 22:40:13;;;;;;;5.90;5.35;;;;;;;20.11;63.73;97357.25;10337335;28;20112;-81
2022/09/05 22:45:35;;;;;;;5.93;5.32;;;;;;;20.12;63.66;97364.25;10323755;28;20046;-81
2022/09/05 22:50:55;;;;;;;5.30;4.90;;;;;;;20.12;63.87;97360.75;10344796;28;20103;-81
2022/09/05 22:56:31;;;;;;;5.90;5.20;;;;;;;20.12;63.63;97361.53;10343722;28;20039;-81
2022/09/05 23:01:50;;;;;;;5.93;5.20;;;;;;;20.12;63.73;97364.25;10335868;28;20050;-81
2022/09/05 23:07:10;;;;;;;5.22;4.72;;;;;;;20.12;63.65;97358.06;10332851;28;20509;-80
2022/09/05 23:12:34;;;;;;;5.60;5.07;;;;;;;20.13;63.60;97351.50;10354159;28;20101;-81
2022/09/05 23:17:54;;;;;;;5.28;4.72;;;;;;;20.12;63.68;97349.94;10352869;28;20573;-81
2022/09/05 23:23:14;;;;;;;5.22;4.72;;;;;;;20.12;63.65;97344.53;10342130;28;20104;-81
2022/09/05 23:28:36;;;;;;;5.45;4.90;;;;;;;20.12;63.69;97349.94;10334864;28;20038;-81
2022/09/05 23:33:57;;;;;;;5.00;4.60;;;;;;;20.12;63.80;97353.44;10331954;28;20118;-81
2022/09/05 23:39:16;;;;;;;6.75;4.82;;;;;;;20.11;63.76;97337.50;10346773;28;20050;-80
2022/09/05 23:44:35;;;;;;;5.47;4.93;;;;;;;20.11;63.45;97332.09;10337679;28;20493;-80
2022/09/05 23:49:55;;;;;;;4.90;4.50;;;;;;;20.12;64.01;97328.28;10348343;28;20049;-80
2022/09/05 23:55:18;;;;;;;5.20;4.70;;;;;;;20.11;63.86;97322.09;10337137;28;20069;-81
